Time;durP1;ratioP1;P1;durP2;ratioP2;P2;SDS_P1;SDS_P2;PMS_P1;PMS_P2;Temp;Humidity;BMP_temperature;BMP_pressure;BME280_temperature;BME280_humidity;BME280_pressure;Samples;Min_cycle;Max_cycle;Signal;HPM_P1;HPM_P2
2022/08/28 00:00:58;;;;;;;6.13;2.90;;;13.00;99.90;;;;;;5035871;28;20119;-82
2022/08/28 00:03:23;;;;;;;7.30;2.35;;;12.90;99.90;;;;;;5052904;28;20091;-82
2022/08/28 00:05:49;;;;;;;8.18;3.00;;;12.90;99.90;;;;;;5052665;28;20049;-83
2022/08/28 00:08:16;;;;;;;17.30;3.47;;;13.00;99.90;;;;;;5052631;28;20033;-83
2022/08/28 00:10:42;;;;;;;6.20;2.83;;;12.90;99.90;;;;;;5053516;28;20091;-82
2022/08/28 00:13:17;;;;;;;5.30;2.72;;;12.90;99.90;;;;;;5052450;28;20071;-83
2022/08/28 00:15:45;;;;;;;13.23;3.05;;;12.80;99.90;;;;;;5052884;28;20500;-83
2022/08/28 00:18:11;;;;;;;10.02;3.53;;;12.80;99.90;;;;;;5052464;28;20040;-83
2022/08/28 00:20:37;;;;;;;15.00;3.13;;;12.70;99.90;;;;;;5035634;28;20404;-83
2022/08/28 00:23:04;;;;;;;8.02;2.97;;;12.70;99.90;;;;;;5035832;28;20558;-83
2022/08/28 00:25:32;;;;;;;7.18;2.92;;;12.70;99.90;;;;;;5053608;28;20041;-82
2022/08/28 00:28:00;;;;;;;11.07;2.90;;;12.70;99.90;;;;;;5052237;28;20045;-83
2022/08/28 00:30:34;;;;;;;6.68;2.75;;;12.60;99.90;;;;;;5035127;28;20522;-82
2022/08/28 00:33:07;;;;;;;8.70;3.20;;;12.60;99.90;;;;;;5035738;28;20124;-83
2022/08/28 00:35:34;;;;;;;7.20;2.92;;;12.60;99.90;;;;;;5035563;28;20060;-81
2022/08/28 00:37:59;;;;;;;8.90;3.25;;;12.60;99.90;;;;;;5035408;28;20502;-81
2022/08/28 00:40:28;;;;;;;6.32;2.83;;;12.60;99.90;;;;;;5034981;28;20178;-83
2022/08/28 00:42:54;;;;;;;6.80;3.78;;;12.50;99.90;;;;;;5035438;28;20037;-83
2022/08/28 00:45:21;;;;;;;11.77;2.90;;;12.60;99.90;;;;;;5051806;28;20037;-81
2022/08/28 00:47:48;;;;;;;10.80;3.17;;;12.60;99.90;;;;;;5052003;28;20040;-83
2022/08/28 00:50:16;;;;;;;10.13;3.15;;;12.50;99.90;;;;;;5051732;28;20051;-83
2022/08/28 00:52:50;;;;;;;9.82;3.03;;;12.60;99.90;;;;;;5034858;28;20047;-82
2022/08/28 00:55:23;;;;;;;11.15;3.20;;;12.60;99.90;;;;;;5035313;28;20125;-82
2022/08/28 00:57:52;;;;;;;7.80;3.45;;;12.40;99.90;;;;;;5051022;28;20032;-83
2022/08/28 01:00:22;;;;;;;7.38;2.90;;;12.60;99.90;;;;;;5051476;28;20388;-83
2022/08/28 01:02:48;;;;;;;13.98;3.95;;;12.50;99.90;;;;;;5051907;28;20037;-82
2022/08/28 01:05:16;;;;;;;11.43;2.80;;;12.50;99.90;;;;;;5035076;28;20039;-83
2022/08/28 01:07:41;;;;;;;8.65;3.13;;;12.50;99.90;;;;;;5036428;28;20053;-80
2022/08/28 01:10:10;;;;;;;8.13;2.85;;;12.50;99.90;;;;;;5053399;28;20056;-80
2022/08/28 01:12:37;;;;;;;6.65;2.83;;;12.50;99.90;;;;;;5053646;28;20507;-80
2022/08/28 01:15:10;;;;;;;6.13;2.75;;;12.50;99.90;;;;;;5054136;28;20036;-81
2022/08/28 01:17:40;;;;;;;12.77;3.67;;;12.40;99.90;;;;;;5053363;28;20553;-80
2022/08/28 01:20:12;;;;;;;7.60;3.13;;;12.40;99.90;;;;;;5053313;28;20037;-80
2022/08/28 01:23:05;;;;;;;5.43;2.83;;;12.30;99.90;;;;;;5053006;28;20060;-80
2022/08/28 01:25:34;;;;;;;9.35;3.08;;;12.30;99.90;;;;;;5036580;28;20049;-80
2022/08/28 01:28:02;;;;;;;8.60;3.67;;;12.30;99.90;;;;;;5053025;28;20571;-80
2022/08/28 01:30:30;;;;;;;6.38;2.90;;;12.30;99.90;;;;;;5036623;28;20048;-80
2022/08/28 01:32:57;;;;;;;8.43;2.97;;;12.20;99.90;;;;;;5053049;28;20523;-80
2022/08/28 01:35:30;;;;;;;10.45;3.65;;;12.30;99.90;;;;;;5053703;28;20431;-80
2022/08/28 01:37:56;;;;;;;8.77;3.58;;;12.20;99.90;;;;;;5053103;28;20442;-80
2022/08/28 01:40:38;;;;;;;7.70;3.10;;;12.10;99.90;;;;;;5053640;28;20087;-79
2022/08/28 01:43:13;;;;;;;11.20;3.38;;;12.10;99.90;;;;;;5053183;28;20040;-79
2022/08/28 01:45:42;;;;;;;9.30;3.53;;;12.10;99.90;;;;;;5035840;28;20055;-80
2022/08/28 01:48:08;;;;;;;7.97;3.30;;;12.10;99.90;;;;;;5052484;28;20037;-80
2022/08/28 01:50:35;;;;;;;9.77;3.13;;;12.10;99.90;;;;;;5035623;28;20090;-81
2022/08/28 01:53:01;;;;;;;9.27;3.45;;;12.00;99.90;;;;;;5053062;28;20535;-80
2022/08/28 01:55:28;;;;;;;9.82;3.17;;;12.00;99.90;;;;;;5053365;28;20037;-79
2022/08/28 01:57:54;;;;;;;7.68;2.95;;;12.00;99.90;;;;;;5052544;28;20041;-79
2022/08/28 02:00:24;;;;;;;8.70;3.53;;;12.00;99.90;;;;;;5053310;28;20063;-80
2022/08/28 02:02:50;;;;;;;8.43;3.08;;;11.90;99.90;;;;;;5053055;28;20101;-81
2022/08/28 02:05:17;;;;;;;6.93;3.30;;;12.00;99.90;;;;;;5036587;28;20123;-81
2022/08/28 02:07:43;;;;;;;6.68;2.67;;;11.90;99.90;;;;;;5052801;28;20179;-79
2022/08/28 02:10:10;;;;;;;4.00;2.55;;;11.90;99.90;;;;;;5051876;28;20052;-79
2022/08/28 02:12:36;;;;;;;13.98;3.20;;;11.90;99.90;;;;;;5036310;28;20080;-80
2022/08/28 02:15:04;;;;;;;10.35;3.25;;;11.90;99.90;;;;;;5052399;28;20045;-81
2022/08/28 02:17:30;;;;;;;4.63;2.72;;;11.90;99.90;;;;;;5054517;28;20045;-81
2022/08/28 02:19:56;;;;;;;7.68;3.00;;;11.90;99.90;;;;;;5052818;28;20063;-79
2022/08/28 02:22:21;;;;;;;10.98;3.03;;;11.80;99.90;;;;;;5052176;28;20456;-80
2022/08/28 02:24:47;;;;;;;8.02;3.55;;;11.80;99.90;;;;;;5053806;28;20037;-80
2022/08/28 02:27:12;;;;;;;12.45;3.65;;;11.80;99.90;;;;;;5054275;28;20044;-81
2022/08/28 02:29:38;;;;;;;10.70;3.17;;;11.90;99.90;;;;;;5051901;28;20041;-80
2022/08/28 02:32:04;;;;;;;9.73;2.90;;;11.90;99.90;;;;;;5052192;28;20053;-80
2022/08/28 02:34:32;;;;;;;6.10;2.60;;;11.90;99.90;;;;;;5036327;28;20033;-79
2022/08/28 02:36:58;;;;;;;7.97;2.50;;;11.90;99.90;;;;;;5052876;28;20072;-80
2022/08/28 02:39:23;;;;;;;6.53;3.35;;;11.90;99.90;;;;;;5035969;28;20056;-80
2022/08/28 02:41:49;;;;;;;9.07;3.30;;;11.90;99.90;;;;;;5052488;28;20045;-80
2022/08/28 02:44:16;;;;;;;7.65;2.72;;;11.90;99.90;;;;;;5051790;28;20044;-83
2022/08/28 02:46:42;;;;;;;9.50;3.30;;;11.90;99.90;;;;;;5033921;28;20044;-82
2022/08/28 02:49:07;;;;;;;8.18;3.22;;;11.90;99.90;;;;;;5050190;28;20045;-82
2022/08/28 02:51:34;;;;;;;13.15;3.28;;;11.90;99.90;;;;;;5033424;28;20070;-81
2022/08/28 02:54:00;;;;;;;9.68;2.80;;;11.90;99.90;;;;;;5049939;28;20098;-83
2022/08/28 02:56:26;;;;;;;9.57;2.95;;;11.80;99.90;;;;;;5049994;28;20033;-83
2022/08/28 02:58:52;;;;;;;6.55;3.00;;;11.90;99.90;;;;;;5050211;28;20045;-84
2022/08/28 03:01:18;;;;;;;9.10;2.90;;;11.80;99.90;;;;;;5049709;28;20053;-83
2022/08/28 03:03:44;;;;;;;8.88;2.75;;;11.90;99.90;;;;;;5033180;28;20407;-81
2022/08/28 03:06:11;;;;;;;12.13;3.83;;;11.80;99.90;;;;;;5033232;28;20043;-83
2022/08/28 03:08:37;;;;;;;11.10;3.28;;;11.80;99.90;;;;;;5033230;28;20087;-83
2022/08/28 03:11:03;;;;;;;4.63;2.25;;;11.70;99.90;;;;;;5032809;28;20048;-82
2022/08/28 03:13:29;;;;;;;6.30;2.35;;;11.80;99.90;;;;;;5032966;28;20063;-82
2022/08/28 03:15:55;;;;;;;9.25;2.53;;;11.70;99.90;;;;;;5033523;28;20063;-83
2022/08/28 03:18:21;;;;;;;5.60;2.45;;;11.60;99.90;;;;;;5050036;28;20508;-82
2022/08/28 03:20:47;;;;;;;8.38;2.95;;;11.70;99.90;;;;;;5052086;28;20037;-83
2022/08/28 03:23:25;;;;;;;9.57;2.85;;;11.70;99.90;;;;;;5037047;28;20047;-83
2022/08/28 03:26:01;;;;;;;5.45;2.70;;;11.60;99.90;;;;;;5036996;28;20045;-82
2022/08/28 03:28:30;;;;;;;5.25;2.80;;;11.60;99.90;;;;;;5053563;28;20084;-83
2022/08/28 03:30:57;;;;;;;8.55;3.35;;;11.60;99.90;;;;;;5040892;28;20037;-78
2022/08/28 03:33:23;;;;;;;8.45;3.10;;;11.60;99.90;;;;;;5063777;28;20024;-77
2022/08/28 03:35:49;;;;;;;6.00;2.90;;;11.50;99.90;;;;;;5063298;28;20033;-78
2022/08/28 03:38:15;;;;;;;7.78;3.40;;;11.50;99.90;;;;;;5045166;28;20131;-81
2022/08/28 03:40:43;;;;;;;10.93;2.83;;;11.60;99.90;;;;;;5052668;28;20055;-83
2022/08/28 03:43:11;;;;;;;6.95;2.97;;;11.50;99.90;;;;;;5036242;28;20056;-81
2022/08/28 03:45:39;;;;;;;7.43;2.63;;;11.50;99.90;;;;;;5052991;28;20492;-81
2022/08/28 03:48:06;;;;;;;7.05;2.53;;;11.50;99.90;;;;;;5035925;28;20555;-83
2022/08/28 03:50:33;;;;;;;9.02;3.58;;;11.40;99.90;;;;;;5035805;28;20060;-83
2022/08/28 03:52:59;;;;;;;6.55;3.47;;;11.50;99.90;;;;;;5052346;28;20587;-83
2022/08/28 03:55:25;;;;;;;9.07;3.05;;;11.50;99.90;;;;;;5035955;28;20120;-83
2022/08/28 03:57:51;;;;;;;6.15;2.72;;;11.50;99.90;;;;;;5053118;28;20675;-84
2022/08/28 04:00:17;;;;;;;10.68;3.38;;;11.40;99.90;;;;;;5052444;28;20041;-83
2022/08/28 04:02:44;;;;;;;9.40;3.13;;;11.40;99.90;;;;;;5035855;28;20063;-82
2022/08/28 04:05:11;;;;;;;6.78;2.95;;;11.50;99.90;;;;;;5035841;28;20569;-83
2022/08/28 04:07:37;;;;;;;12.65;2.92;;;11.50;99.90;;;;;;5052602;28;20455;-83
2022/08/28 04:10:03;;;;;;;8.60;2.97;;;11.40;99.90;;;;;;5052116;28;20068;-83
2022/08/28 04:12:29;;;;;;;7.05;2.85;;;11.40;99.90;;;;;;5035763;28;20044;-83
2022/08/28 04:14:54;;;;;;;5.50;3.05;;;11.40;99.90;;;;;;5052336;28;20033;-83
2022/08/28 04:17:20;;;;;;;9.20;3.05;;;11.40;99.90;;;;;;5052375;28;20820;-83
2022/08/28 04:19:46;;;;;;;15.40;4.82;;;11.30;99.90;;;;;;5035348;28;20040;-82
2022/08/28 04:22:11;;;;;;;7.25;3.67;;;11.30;99.90;;;;;;5035334;28;20492;-84
2022/08/28 04:24:37;;;;;;;8.95;3.63;;;11.30;99.90;;;;;;5052317;28;20048;-83
2022/08/28 04:27:03;;;;;;;8.13;2.88;;;11.20;99.90;;;;;;5052104;28;20515;-83
2022/08/28 04:29:29;;;;;;;9.50;3.22;;;11.20;99.90;;;;;;5051575;28;20041;-84
2022/08/28 04:31:56;;;;;;;7.97;2.95;;;11.20;99.90;;;;;;5034379;28;20036;-83
2022/08/28 04:34:23;;;;;;;10.60;3.15;;;11.20;99.90;;;;;;5035299;28;20790;-83
2022/08/28 04:36:52;;;;;;;9.48;3.47;;;11.20;99.90;;;;;;5035063;28;20492;-83
2022/08/28 04:39:18;;;;;;;9.93;3.10;;;11.20;99.90;;;;;;5051766;28;20036;-84
2022/08/28 04:41:43;;;;;;;8.48;3.65;;;11.20;99.90;;;;;;5035019;28;20059;-83
2022/08/28 04:44:09;;;;;;;6.07;2.90;;;11.30;99.90;;;;;;5035122;28;20036;-84
2022/08/28 04:46:35;;;;;;;10.85;3.35;;;11.30;99.90;;;;;;5034989;28;20071;-83
2022/08/28 04:49:03;;;;;;;8.68;2.97;;;11.30;99.90;;;;;;5051529;28;20392;-83
2022/08/28 04:51:29;;;;;;;9.75;3.38;;;11.30;99.90;;;;;;5034576;28;20067;-84
2022/08/28 04:53:56;;;;;;;6.40;3.05;;;11.30;99.90;;;;;;5035263;28;20128;-82
2022/08/28 04:56:21;;;;;;;5.90;3.30;;;11.30;99.90;;;;;;5035190;28;20053;-83
2022/08/28 04:58:47;;;;;;;7.85;3.58;;;11.40;99.90;;;;;;5034785;28;20044;-83
2022/08/28 05:01:19;;;;;;;9.43;3.67;;;11.40;99.90;;;;;;5051124;28;20471;-81
2022/08/28 05:03:46;;;;;;;6.53;3.38;;;11.40;99.90;;;;;;5034897;28;20106;-83
2022/08/28 05:06:14;;;;;;;6.45;3.03;;;11.50;99.90;;;;;;5034651;28;20511;-84
2022/08/28 05:08:40;;;;;;;8.32;3.35;;;11.50;99.90;;;;;;5035029;28;20043;-83
2022/08/28 05:11:16;;;;;;;7.03;3.08;;;11.50;99.90;;;;;;5034292;28;20044;-84
2022/08/28 05:13:42;;;;;;;6.32;3.00;;;11.50;99.90;;;;;;5034565;28;20033;-81
2022/08/28 05:16:08;;;;;;;5.47;2.95;;;11.60;99.90;;;;;;5051435;28;20052;-83
2022/08/28 05:18:34;;;;;;;6.70;2.75;;;11.60;99.90;;;;;;5051029;28;20041;-82
2022/08/28 05:21:00;;;;;;;6.68;2.90;;;11.80;99.90;;;;;;5034565;28;20115;-83
2022/08/28 05:23:27;;;;;;;5.60;2.70;;;11.70;99.90;;;;;;5034503;28;20132;-83
2022/08/28 05:25:52;;;;;;;5.13;3.20;;;11.80;99.90;;;;;;5050948;28;20492;-83
2022/08/28 05:28:18;;;;;;;7.60;2.72;;;11.90;99.90;;;;;;5051074;28;20210;-84
2022/08/28 05:30:45;;;;;;;7.78;3.92;;;11.90;99.90;;;;;;5050509;28;20075;-83
2022/08/28 05:33:12;;;;;;;3.80;2.63;;;12.00;99.90;;;;;;5034077;28;20381;-84
2022/08/28 05:35:40;;;;;;;10.10;3.15;;;12.00;99.90;;;;;;5034453;28;20123;-84
2022/08/28 05:38:07;;;;;;;6.05;2.72;;;12.00;99.90;;;;;;5034069;28;20029;-82
2022/08/28 05:40:38;;;;;;;4.55;2.50;;;11.90;99.90;;;;;;5034223;28;20431;-84
2022/08/28 05:43:04;;;;;;;8.70;3.00;;;12.10;99.90;;;;;;5033918;28;20048;-81
2022/08/28 05:45:29;;;;;;;8.70;4.13;;;12.10;99.90;;;;;;5034179;28;20283;-84
2022/08/28 05:47:56;;;;;;;7.25;2.85;;;12.20;99.90;;;;;;5034295;28;20510;-84
2022/08/28 05:50:21;;;;;;;5.13;2.80;;;12.30;99.90;;;;;;5050400;28;20045;-83
2022/08/28 05:52:47;;;;;;;9.90;2.63;;;12.20;99.90;;;;;;5034256;28;20078;-84
2022/08/28 05:55:13;;;;;;;4.90;2.72;;;12.40;99.90;;;;;;5033820;28;20060;-83
2022/08/28 05:57:39;;;;;;;6.03;2.97;;;12.50;99.90;;;;;;5050630;28;20079;-83
2022/08/28 06:00:11;;;;;;;4.50;2.58;;;12.50;99.90;;;;;;5052714;28;20064;-81
2022/08/28 06:02:37;;;;;;;6.63;2.50;;;12.60;99.90;;;;;;5037051;28;20065;-81
2022/08/28 06:05:02;;;;;;;9.15;3.35;;;12.70;99.90;;;;;;5037569;28;20041;-80
2022/08/28 06:07:28;;;;;;;6.78;2.70;;;12.70;99.90;;;;;;5038306;28;20042;-80
2022/08/28 06:09:54;;;;;;;9.27;2.70;;;12.80;99.90;;;;;;5036598;28;20186;-80
2022/08/28 06:12:20;;;;;;;11.38;4.55;;;12.90;99.90;;;;;;5037580;28;20036;-80
2022/08/28 06:14:46;;;;;;;8.32;2.88;;;12.90;99.90;;;;;;5037745;28;20044;-80
2022/08/28 06:17:11;;;;;;;6.95;2.97;;;12.90;99.90;;;;;;5053875;28;20041;-81
2022/08/28 06:19:37;;;;;;;4.50;3.00;;;12.90;99.90;;;;;;5036381;28;20495;-81
2022/08/28 06:22:04;;;;;;;9.13;3.40;;;13.00;99.90;;;;;;5053030;28;20040;-80
2022/08/28 06:24:31;;;;;;;6.72;3.45;;;13.00;99.90;;;;;;5053406;28;20041;-81
2022/08/28 06:26:57;;;;;;;6.97;2.65;;;12.90;99.90;;;;;;5053284;28;20037;-81
2022/08/28 06:29:23;;;;;;;6.47;2.85;;;13.00;99.90;;;;;;5053156;28;20040;-82
2022/08/28 06:31:59;;;;;;;5.63;2.30;;;13.00;99.90;;;;;;5036312;28;20044;-80
2022/08/28 06:34:26;;;;;;;10.23;2.60;;;13.10;99.90;;;;;;5037113;28;20036;-80
2022/08/28 06:36:52;;;;;;;5.10;2.35;;;13.10;99.90;;;;;;5038161;28;20047;-80
2022/08/28 06:39:19;;;;;;;9.88;3.22;;;13.20;99.90;;;;;;5034270;28;20041;-82
2022/08/28 06:41:44;;;;;;;8.77;2.78;;;13.30;99.90;;;;;;5049723;28;20048;-84
2022/08/28 06:44:18;;;;;;;5.90;2.00;;;13.40;99.90;;;;;;5033653;28;20080;-84
2022/08/28 06:46:45;;;;;;;9.57;2.60;;;13.50;99.90;;;;;;5050115;28;20072;-81
2022/08/28 06:49:11;;;;;;;6.65;2.53;;;13.70;99.90;;;;;;5033237;28;21939;-84
2022/08/28 06:51:37;;;;;;;8.90;1.95;;;13.80;99.90;;;;;;5033016;28;20072;-82
2022/08/28 06:54:04;;;;;;;7.80;3.28;;;14.00;99.90;;;;;;5033245;28;20041;-84
2022/08/28 06:56:30;;;;;;;9.43;2.08;;;14.30;99.90;;;;;;5037378;28;20058;-84
2022/08/28 06:58:57;;;;;;;9.48;2.25;;;14.50;99.90;;;;;;5037020;28;20527;-84
2022/08/28 07:01:35;;;;;;;5.88;1.80;;;14.60;99.90;;;;;;5037038;28;20064;-83
2022/08/28 07:04:04;;;;;;;9.82;2.70;;;14.70;99.90;;;;;;5037120;28;20079;-84
2022/08/28 07:06:33;;;;;;;8.85;2.78;;;14.90;99.90;;;;;;5036909;28;20042;-84
2022/08/28 07:09:00;;;;;;;11.70;2.60;;;15.00;99.90;;;;;;5037130;28;20037;-84
2022/08/28 07:11:29;;;;;;;9.05;2.00;;;15.20;99.90;;;;;;5036654;28;20144;-85
2022/08/28 07:13:56;;;;;;;3.55;1.40;;;15.50;99.90;;;;;;5036704;28;20041;-84
2022/08/28 07:16:25;;;;;;;7.32;2.08;;;15.80;99.90;;;;;;5037084;28;20138;-84
2022/08/28 07:18:50;;;;;;;8.93;2.08;;;16.30;99.90;;;;;;5040888;28;20029;-81
2022/08/28 07:21:16;;;;;;;7.47;1.33;;;17.00;99.90;;;;;;5063310;28;20055;-78
2022/08/28 07:23:43;;;;;;;4.53;1.40;;;17.80;99.90;;;;;;5078743;28;20116;-80
2022/08/28 07:26:13;;;;;;;11.13;1.70;;;18.60;99.90;;;;;;5067472;28;20125;-81
2022/08/28 07:28:39;;;;;;;5.28;1.73;;;19.40;99.90;;;;;;5056175;28;20078;-81
2022/08/28 07:31:14;;;;;;;6.75;1.88;;;20.00;99.90;;;;;;5055682;28;20080;-81
2022/08/28 07:33:40;;;;;;;5.18;1.60;;;20.50;99.90;;;;;;5054593;28;20045;-81
2022/08/28 07:36:08;;;;;;;6.15;1.60;;;20.90;99.90;;;;;;5055775;28;20411;-81
2022/08/28 07:38:35;;;;;;;3.42;1.25;;;21.30;99.90;;;;;;5055062;28;20048;-81
2022/08/28 07:41:01;;;;;;;7.60;1.55;;;21.60;99.90;;;;;;5055167;28;20048;-81
2022/08/28 07:46:11;;;;;;;2.42;1.20;;;22.10;99.90;;;;;;5054378;28;20123;-81
2022/08/28 07:48:39;;;;;;;4.00;1.50;;;22.30;99.90;;;;;;5055365;28;20036;-81
2022/08/28 07:51:07;;;;;;;7.78;1.90;;;22.60;99.90;;;;;;5054111;28;20503;-81
2022/08/28 07:53:33;;;;;;;7.13;1.45;;;22.80;99.90;;;;;;5054269;28;20033;-81
2022/08/28 07:55:58;;;;;;;3.60;1.17;;;23.00;99.90;;;;;;5055640;28;20112;-81
2022/08/28 07:58:25;;;;;;;8.55;1.58;;;23.10;99.90;;;;;;5055156;28;20029;-81
2022/08/28 08:00:52;;;;;;;4.85;1.48;;;23.40;99.90;;;;;;5054097;28;20124;-81
2022/08/28 08:03:17;;;;;;;4.18;1.27;;;23.50;99.90;;;;;;5054775;28;20041;-81
2022/08/28 08:05:58;;;;;;;5.85;1.20;;;23.50;99.90;;;;;;5054232;28;20055;-81
2022/08/28 08:08:25;;;;;;;3.90;1.02;;;23.60;96.40;;;;;;5067629;28;20367;-81
2022/08/28 08:11:03;;;;;;;2.33;1.05;;;23.60;99.50;;;;;;5073654;28;20059;-81
2022/08/28 08:13:29;;;;;;;6.22;1.20;;;23.60;94.60;;;;;;5076053;28;20667;-82
2022/08/28 08:16:04;;;;;;;4.18;1.05;;;23.70;99.90;;;;;;5078796;28;20037;-81
2022/08/28 08:18:30;;;;;;;4.57;1.25;;;23.60;99.90;;;;;;5074751;28;20037;-81
2022/08/28 08:20:56;;;;;;;6.50;1.50;;;23.70;99.90;;;;;;5088081;28;20388;-81
2022/08/28 08:23:22;;;;;;;3.58;1.20;;;23.80;99.30;;;;;;5095766;28;20040;-81
2022/08/28 08:25:58;;;;;;;3.42;1.15;;;23.80;98.40;;;;;;5078597;28;20055;-80
2022/08/28 08:28:26;;;;;;;3.10;1.30;;;23.90;96.20;;;;;;5077063;28;20076;-77
2022/08/28 08:31:06;;;;;;;4.75;1.38;;;23.60;97.30;;;;;;5055217;28;20416;-79
2022/08/28 08:33:33;;;;;;;5.03;1.20;;;23.60;93.30;;;;;;5055775;28;20044;-79
2022/08/28 08:35:59;;;;;;;4.13;1.55;;;23.80;97.00;;;;;;5055709;28;20093;-78
2022/08/28 08:38:27;;;;;;;2.30;1.05;;;23.80;94.90;;;;;;5055328;28;20036;-79
2022/08/28 08:40:53;;;;;;;4.68;1.30;;;23.80;94.60;;;;;;5071693;28;20040;-78
2022/08/28 08:43:20;;;;;;;2.75;1.10;;;24.00;93.70;;;;;;5055178;28;20185;-78
2022/08/28 08:45:48;;;;;;;3.63;1.10;;;24.20;91.80;;;;;;5054985;28;20132;-79
2022/08/28 08:48:27;;;;;;;4.80;1.30;;;24.40;90.60;;;;;;5070770;28;20040;-78
2022/08/28 08:50:54;;;;;;;6.50;1.23;;;24.50;76.10;;;;;;5077123;28;20498;-79
2022/08/28 08:53:58;;;;;;;5.97;1.08;;;24.60;87.40;;;;;;5071594;28;20122;-78
2022/08/28 08:56:23;;;;;;;5.22;1.25;;;24.50;76.50;;;;;;5073950;28;20072;-79
2022/08/28 08:58:52;;;;;;;3.67;1.20;;;24.60;86.10;;;;;;5075427;28;20051;-78
2022/08/28 09:01:44;;;;;;;6.05;1.20;;;24.70;82.80;;;;;;5072079;28;20076;-79
2022/08/28 09:04:48;;;;;;;3.42;0.98;;;24.90;72.20;;;;;;5073301;28;20378;-78
2022/08/28 09:07:43;;;;;;;4.45;1.13;;;25.00;64.70;;;;;;5055184;28;20558;-77
2022/08/28 09:10:11;;;;;;;4.38;1.02;;;25.00;71.10;;;;;;5053064;28;20071;-78
2022/08/28 09:13:16;;;;;;;3.45;1.05;;;25.10;76.10;;;;;;5070006;28;20047;-78
2022/08/28 09:15:45;;;;;;;3.25;1.08;;;25.30;67.50;;;;;;5045247;28;20061;-78
2022/08/28 09:18:20;;;;;;;3.15;1.13;;;25.40;73.90;;;;;;5070352;28;20047;-77
2022/08/28 09:20:50;;;;;;;5.50;1.17;;;24.70;66.60;;;;;;5078329;28;20049;-78
2022/08/28 09:23:16;;;;;;;3.05;1.10;;;23.90;72.30;;;;;;5083246;28;20628;-78
2022/08/28 09:25:55;;;;;;;3.97;1.33;;;23.80;77.00;;;;;;5073888;28;20083;-75
2022/08/28 09:28:23;;;;;;;4.18;1.10;;;23.50;72.80;;;;;;5072790;28;20127;-80
2022/08/28 09:30:59;;;;;;;2.55;0.95;;;23.30;78.60;;;;;;5072123;28;20094;-77
2022/08/28 09:33:35;;;;;;;4.55;1.15;;;23.40;82.20;;;;;;5053524;28;20043;-75
2022/08/28 09:36:26;;;;;;;3.72;1.45;;;23.70;81.00;;;;;;5054126;28;20502;-77
2022/08/28 09:39:13;;;;;;;5.25;1.20;;;23.60;73.10;;;;;;5072022;28;20044;-76
2022/08/28 09:45:13;;;;;;;6.00;1.40;;;22.40;83.30;;;;;;5051321;28;20047;-77
2022/08/28 09:47:54;;;;;;;4.22;0.93;;;22.80;87.20;;;;;;5074396;28;20080;-78
2022/08/28 09:50:31;;;;;;;3.22;1.00;;;22.90;82.30;;;;;;5084878;28;20040;-76
2022/08/28 09:53:13;;;;;;;5.72;1.00;;;22.60;85.10;;;;;;5090782;28;20040;-75
2022/08/28 09:56:06;;;;;;;3.60;1.20;;;22.30;86.70;;;;;;5070735;28;20490;-77
2022/08/28 09:58:42;;;;;;;5.25;1.80;;;22.00;88.60;;;;;;5071574;28;20040;-77
2022/08/28 10:01:13;;;;;;;6.00;1.42;;;22.10;90.70;;;;;;5070611;28;20037;-77
2022/08/28 10:03:45;;;;;;;;;;;22.60;89.00;;;;;;5070833;28;20075;-77
2022/08/28 10:06:20;;;;;;;4.03;1.13;;;23.00;82.80;;;;;;5071672;28;19920;-77
2022/08/28 10:08:53;;;;;;;5.60;1.30;;;23.60;81.10;;;;;;5072048;28;20123;-78
2022/08/28 10:11:47;;;;;;;5.63;1.35;;;24.00;82.30;;;;;;5072497;28;20105;-77
2022/08/28 10:14:15;;;;;;;5.95;1.50;;;24.20;76.70;;;;;;5072885;28;20079;-77
2022/08/28 10:17:05;;;;;;;4.75;1.13;;;24.20;75.70;;;;;;5071439;28;20047;-77
2022/08/28 10:19:48;;;;;;;2.28;1.23;;;23.70;75.10;;;;;;5071834;28;20045;-79
2022/08/28 10:22:14;;;;;;;3.60;1.17;;;23.50;78.80;;;;;;5071407;28;20051;-77
2022/08/28 10:25:01;;;;;;;5.85;1.35;;;23.60;80.20;;;;;;5069180;28;20135;-78
2022/08/28 10:28:04;;;;;;;2.60;1.00;;;23.80;80.10;;;;;;5071186;28;20511;-76
2022/08/28 10:30:35;;;;;;;3.28;1.45;;;23.50;76.80;;;;;;5070527;28;20036;-78
2022/08/28 10:33:28;;;;;;;3.53;1.20;;;23.00;79.00;;;;;;5056313;28;20040;-76
2022/08/28 10:36:14;;;;;;;7.00;1.38;;;22.80;79.50;;;;;;5053156;28;20040;-77
2022/08/28 10:38:47;;;;;;;4.50;1.27;;;22.60;80.90;;;;;;5055326;28;20033;-76
2022/08/28 10:41:19;;;;;;;4.10;1.30;;;22.50;83.10;;;;;;5076178;28;20384;-77
2022/08/28 10:43:53;;;;;;;4.80;1.40;;;22.50;84.20;;;;;;5056187;28;20129;-78
2022/08/28 10:46:29;;;;;;;5.57;1.60;;;22.70;84.00;;;;;;5057562;28;20048;-78
2022/08/28 10:49:00;;;;;;;5.32;1.60;;;22.90;81.80;;;;;;5070974;28;20040;-79
2022/08/28 10:52:01;;;;;;;2.25;0.98;;;23.10;79.00;;;;;;5054859;28;20049;-75
2022/08/28 10:54:51;;;;;;;6.57;1.63;;;23.30;78.40;;;;;;5030533;28;20047;-79
2022/08/28 10:57:46;;;;;;;7.38;1.40;;;23.60;78.30;;;;;;5054208;28;20047;-82
2022/08/28 11:00:19;;;;;;;4.53;1.50;;;23.60;74.80;;;;;;5070618;28;20491;-83
2022/08/28 11:02:50;;;;;;;9.20;1.40;;;23.30;77.10;;;;;;5069908;28;20051;-83
2022/08/28 11:05:22;;;;;;;6.57;1.48;;;22.90;78.60;;;;;;5070242;28;20044;-77
2022/08/28 11:07:59;;;;;;;4.50;1.50;;;22.50;80.10;;;;;;5070403;28;20036;-82
2022/08/28 11:10:30;;;;;;;5.88;1.48;;;22.30;82.10;;;;;;5070317;28;20041;-83
2022/08/28 11:12:57;;;;;;;3.83;1.42;;;22.40;83.30;;;;;;5071016;28;20456;-83
2022/08/28 11:15:26;;;;;;;4.03;1.60;;;22.60;84.70;;;;;;5782416;22;20142;-85
2022/08/28 11:17:58;;;;;;;2.88;1.27;;;23.00;80.90;;;;;;5037145;28;20045;-85
2022/08/28 11:20:27;;;;;;;5.80;2.25;;;23.40;78.60;;;;;;5020132;28;20455;-85
2022/08/28 11:23:11;;;;;;;4.95;1.65;;;23.80;73.20;;;;;;5035150;28;20037;-83
2022/08/28 11:25:53;;;;;;;4.65;1.20;;;23.90;73.10;;;;;;5021279;28;20490;-83
2022/08/28 11:28:46;;;;;;;6.07;1.50;;;23.70;69.50;;;;;;5040997;28;20064;-84
2022/08/28 11:31:11;;;;;;;3.83;1.45;;;23.10;71.00;;;;;;5024757;28;20040;-83
2022/08/28 11:33:51;;;;;;;6.35;1.80;;;22.60;75.00;;;;;;5018816;28;20130;-84
2022/08/28 11:36:17;;;;;;;3.30;1.25;;;22.30;73.30;;;;;;5018345;28;20041;-84
2022/08/28 11:38:43;;;;;;;4.75;1.30;;;22.30;78.40;;;;;;5018357;28;20091;-84
2022/08/28 11:41:13;;;;;;;3.83;1.52;;;22.50;77.70;;;;;;5023067;28;20041;-83
2022/08/28 11:43:42;;;;;;;3.65;1.52;;;22.90;79.20;;;;;;5025049;28;20047;-83
2022/08/28 11:46:10;;;;;;;5.20;1.30;;;23.10;77.60;;;;;;5022003;28;20091;-84
2022/08/28 11:48:38;;;;;;;6.45;1.33;;;23.00;78.00;;;;;;5038571;28;20411;-84
2022/08/28 11:51:16;;;;;;;3.80;1.33;;;22.70;78.20;;;;;;5038693;28;20044;-84
2022/08/28 11:54:27;;;;;;;6.80;1.33;;;22.40;78.80;;;;;;5040519;28;20041;-84
2022/08/28 11:57:12;;;;;;;5.60;1.60;;;22.00;79.20;;;;;;5016776;28;20041;-85
2022/08/28 11:59:44;;;;;;;4.40;1.27;;;21.70;81.50;;;;;;5020037;28;20090;-85
2022/08/28 12:02:42;;;;;;;7.97;1.52;;;21.80;83.40;;;;;;5021738;28;20071;-84
2022/08/28 12:05:31;;;;;;;4.60;1.42;;;22.20;85.30;;;;;;5032599;28;20049;-84
2022/08/28 12:07:59;;;;;;;4.65;1.50;;;22.60;75.90;;;;;;5020752;28;20044;-83
2022/08/28 12:10:25;;;;;;;6.82;1.45;;;22.60;79.70;;;;;;5020968;28;20398;-84
2022/08/28 12:12:55;;;;;;;3.42;1.27;;;22.40;78.90;;;;;;5036183;28;20057;-84
2022/08/28 12:15:26;;;;;;;4.85;1.38;;;22.20;77.00;;;;;;5020923;28;20033;-83
2022/08/28 12:17:58;;;;;;;;;;;22.00;78.30;;;;;;5019793;28;20052;-84
2022/08/28 12:20:33;;;;;;;3.08;1.15;;;22.00;77.80;;;;;;5019583;28;20011;-84
2022/08/28 12:23:33;;;;;;;4.78;1.60;;;21.90;79.70;;;;;;5018633;28;20125;-84
2022/08/28 12:26:34;;;;;;;2.00;1.15;;;22.10;79.70;;;;;;5034755;28;20056;-84
2022/08/28 12:29:01;;;;;;;2.03;1.10;;;22.40;76.00;;;;;;5032513;28;20067;-84
2022/08/28 12:34:40;;;;;;;4.38;1.17;;;22.90;75.60;;;;;;5034858;28;20056;-84
2022/08/28 12:37:29;;;;;;;2.33;1.20;;;23.10;70.50;;;;;;5035079;28;20032;-84
2022/08/28 12:40:14;;;;;;;3.38;1.40;;;23.30;67.10;;;;;;5014782;28;20033;-85
2022/08/28 12:42:50;;;;;;;4.03;1.60;;;23.40;69.40;;;;;;5022839;28;20056;-84
2022/08/28 12:45:27;;;;;;;3.25;1.48;;;23.50;68.40;;;;;;5032653;28;20661;-85
2022/08/28 12:47:58;;;;;;;6.07;1.35;;;23.60;67.30;;;;;;5011651;28;20048;-85
2022/08/28 12:50:35;;;;;;;2.53;1.23;;;23.80;64.30;;;;;;5016693;28;20371;-86
2022/08/28 12:53:04;;;;;;;7.47;1.70;;;23.90;64.10;;;;;;5018181;28;20512;-83
2022/08/28 12:55:31;;;;;;;16.52;8.07;;;24.10;65.20;;;;;;5034508;28;20040;-85
2022/08/28 12:57:57;;;;;;;4.53;1.88;;;24.20;64.80;;;;;;5027102;28;20075;-84
2022/08/28 13:00:31;;;;;;;4.88;1.35;;;24.40;62.70;;;;;;5014231;28;20670;-83
2022/08/28 13:02:58;;;;;;;4.50;1.52;;;24.50;60.80;;;;;;5028037;28;20052;-84
2022/08/28 13:05:40;;;;;;;4.50;1.50;;;24.50;61.60;;;;;;5043490;28;20101;-84
2022/08/28 13:08:11;;;;;;;6.15;1.40;;;24.50;59.10;;;;;;5027200;28;20402;-86
2022/08/28 13:10:38;;;;;;;2.67;1.20;;;24.60;59.20;;;;;;5013583;28;20052;-84
2022/08/28 13:13:17;;;;;;;2.10;1.00;;;24.60;60.10;;;;;;5031916;28;20041;-85